Time;durP1;ratioP1;P1;durP2;ratioP2;P2;SDS_P1;SDS_P2;PMS_P1;PMS_P2;Temp;Humidity;BMP_temperature;BMP_pressure;BME280_temperature;BME280_humidity;BME280_pressure;Samples;Min_cycle;Max_cycle;Signal;HPM_P1;HPM_P2
2020/12/20 00:00:09;;;;;;;;;;;;;;;;;;2055019;28;7578;-67
2020/12/20 00:01:11;;;;;;;;;;;;;;;;;;2055718;28;7141;-68
2020/12/20 00:02:13;;;;;;;;;;;;;;;;;;2063274;28;7092;-66
2020/12/20 00:03:15;;;;;;;;;;;;;;;;;;2062734;28;7045;-67
2020/12/20 00:04:17;;;;;;;;;;;;;;;;;;2063099;28;7137;-65
2020/12/20 00:05:21;;;;;;;;;;;;;;;;;;2063286;28;7113;-65
2020/12/20 00:06:23;;;;;;;;;;;;;;;;;;2054271;28;7014;-67
2020/12/20 00:07:25;;;;;;;;;;;;;;;;;;2054176;28;7034;-69
2020/12/20 00:08:27;;;;;;;;;;;;;;;;;;2055081;28;8045;-67
2020/12/20 00:09:29;;;;;;;;;;;;;;;;;;2055532;28;7093;-65
2020/12/20 00:10:31;;;;;;;;;;;;;;;;;;2055492;28;7005;-65
2020/12/20 00:11:36;;;;;;;;;;;;;;;;;;2054312;28;7014;-68
2020/12/20 00:12:39;;;;;;;;;;;;;;;;;;2055573;28;7013;-69
2020/12/20 00:13:41;;;;;;;;;;;;;;;;;;2063122;28;7048;-67
2020/12/20 00:14:43;;;;;;;;;;;;;;;;;;2062938;28;7092;-67
2020/12/20 00:15:45;;;;;;;;;;;;;;;;;;2063415;28;7046;-65
2020/12/20 00:16:47;;;;;;;;;;;;;;;;;;2054306;28;8639;-66
2020/12/20 00:17:49;;;;;;;;;;;;;;;;;;2063156;28;7085;-67
2020/12/20 00:18:51;;;;;;;;;;;;;;;;;;2062729;28;7096;-66
2020/12/20 00:19:53;;;;;;;;;;;;;;;;;;2062604;28;8099;-67
2020/12/20 00:20:55;;;;;;;;;;;;;;;;;;2061980;28;7105;-67
2020/12/20 00:21:59;;;;;;;;;;;;;;;;;;2055104;28;7089;-66
2020/12/20 00:23:01;;;;;;;;;;;;;;;;;;2054646;28;7010;-64
2020/12/20 00:24:03;;;;;;;;;;;;;;;;;;2054927;28;7006;-67
2020/12/20 00:25:05;;;;;;;;;;;;;;;;;;2055860;28;7026;-67
2020/12/20 00:26:07;;;;;;;;;;;;;;;;;;2054445;28;7100;-64
2020/12/20 00:27:13;;;;;;;;;;;;;;;;;;2053182;28;7088;-68
2020/12/20 00:28:15;;;;;;;;;;;;;;;;;;2055479;28;7118;-66
2020/12/20 00:29:17;;;;;;;;;;;;;;;;;;2054880;28;7018;-66
2020/12/20 00:30:19;;;;;;;;;;;;;;;;;;2054800;28;7050;-66
2020/12/20 00:31:21;;;;;;;;;;;;;;;;;;2055185;28;7037;-65
2020/12/20 00:32:23;;;;;;;;;;;;;;;;;;2055327;28;7097;-63
2020/12/20 00:33:25;;;;;;;;;;;;;;;;;;2054647;28;7419;-65
2020/12/20 00:34:27;;;;;;;;;;;;;;;;;;2055132;28;7044;-63
2020/12/20 00:35:29;;;;;;;;;;;;;;;;;;2055036;28;7006;-64
2020/12/20 00:36:31;;;;;;;;;;;;;;;;;;2063460;28;7125;-67
2020/12/20 00:37:33;;;;;;;;;;;;;;;;;;2062536;28;7039;-65
2020/12/20 00:38:35;;;;;;;;;;;;;;;;;;2055433;28;7030;-67
2020/12/20 00:39:37;;;;;;;;;;;;;;;;;;2055200;28;7017;-66
2020/12/20 00:40:39;;;;;;;;;;;;;;;;;;2054647;28;7038;-66
2020/12/20 00:41:42;;;;;;;;;;;;;;;;;;2054192;28;7348;-66
2020/12/20 00:42:44;;;;;;;;;;;;;;;;;;2054071;28;7021;-66
2020/12/20 00:43:46;;;;;;;;;;;;;;;;;;2054798;28;7014;-69
2020/12/20 00:44:47;;;;;;;;;;;;;;;;;;2054847;28;7014;-67
2020/12/20 00:45:50;;;;;;;;;;;;;;;;;;2054180;28;7014;-67
2020/12/20 00:46:53;;;;;;;;;;;;;;;;;;2054923;28;7014;-68
2020/12/20 00:47:56;;;;;;;;;;;;;;;;;;2054425;28;7221;-65
2020/12/20 00:48:58;;;;;;;;;;;;;;;;;;2052495;28;8060;-66
2020/12/20 00:50:00;;;;;;;;;;;;;;;;;;2054358;28;7152;-64
2020/12/20 00:51:04;;;;;;;;;;;;;;;;;;2054124;28;7021;-68
2020/12/20 00:52:07;;;;;;;;;;;;;;;;;;2054685;28;7093;-65
2020/12/20 00:53:09;;;;;;;;;;;;;;;;;;2054558;28;7097;-64
2020/12/20 00:54:11;;;;;;;;;;;;;;;;;;2055361;28;7013;-67
2020/12/20 00:55:13;;;;;;;;;;;;;;;;;;2055739;28;7046;-69
2020/12/20 00:56:15;;;;;;;;;;;;;;;;;;2054846;28;7136;-66
2020/12/20 00:57:17;;;;;;;;;;;;;;;;;;2053500;28;7049;-65
2020/12/20 00:58:19;;;;;;;;;;;;;;;;;;2054782;28;8220;-65
2020/12/20 00:59:21;;;;;;;;;;;;;;;;;;2054868;28;7205;-65
2020/12/20 01:00:23;;;;;;;;;;;;;;;;;;2059664;28;7010;-66
2020/12/20 01:01:25;;;;;;;;;;;;;;;;;;2063171;28;7013;-69
2020/12/20 01:02:27;;;;;;;;;;;;;;;;;;2062605;28;7050;-66
2020/12/20 01:03:29;;;;;;;;;;;;;;;;;;2063253;28;7088;-65
2020/12/20 01:04:31;;;;;;;;;;;;;;;;;;2062624;28;7813;-65
2020/12/20 01:05:33;;;;;;;;;;;;;;;;;;2062419;28;7092;-68
2020/12/20 01:06:35;;;;;;;;;;;;;;;;;;2062828;28;7794;-67
2020/12/20 01:07:37;;;;;;;;;;;;;;;;;;2062850;28;7009;-69
2020/12/20 01:08:39;;;;;;;;;;;;;;;;;;2063023;28;7050;-68
2020/12/20 01:09:41;;;;;;;;;;;;;;;;;;2062738;28;7325;-65
2020/12/20 01:10:43;;;;;;;;;;;;;;;;;;2062969;28;7096;-67
2020/12/20 01:11:45;;;;;;;;;;;;;;;;;;2056308;28;7045;-66
2020/12/20 01:12:47;;;;;;;;;;;;;;;;;;2055386;28;7046;-67
2020/12/20 01:13:50;;;;;;;;;;;;;;;;;;2054658;28;7054;-67
2020/12/20 01:14:52;;;;;;;;;;;;;;;;;;2053384;28;7025;-68
2020/12/20 01:15:54;;;;;;;;;;;;;;;;;;2054457;28;7192;-66
2020/12/20 01:16:56;;;;;;;;;;;;;;;;;;2052986;28;7051;-67
2020/12/20 01:18:12;;;;;;;;;;;;;;;;;;2053415;28;7026;-68
2020/12/20 01:19:14;;;;;;;;;;;;;;;;;;2051882;28;8100;-64
2020/12/20 01:20:16;;;;;;;;;;;;;;;;;;2053388;28;7093;-68
2020/12/20 01:21:18;;;;;;;;;;;;;;;;;;2056244;28;7159;-67
2020/12/20 01:22:20;;;;;;;;;;;;;;;;;;2053147;28;8087;-70
2020/12/20 01:23:22;;;;;;;;;;;;;;;;;;2054346;28;7018;-64
2020/12/20 01:24:24;;;;;;;;;;;;;;;;;;2055236;28;7006;-69
2020/12/20 01:25:26;;;;;;;;;;;;;;;;;;2057003;28;7018;-66
2020/12/20 01:26:28;;;;;;;;;;;;;;;;;;2054736;28;7009;-68
2020/12/20 01:27:30;;;;;;;;;;;;;;;;;;2053100;28;7009;-66
2020/12/20 01:28:33;;;;;;;;;;;;;;;;;;2054346;28;7006;-65
2020/12/20 01:29:35;;;;;;;;;;;;;;;;;;2054320;28;8059;-67
2020/12/20 01:30:37;;;;;;;;;;;;;;;;;;2054773;28;7085;-68
2020/12/20 01:31:39;;;;;;;;;;;;;;;;;;2054616;28;7010;-65
2020/12/20 01:32:40;;;;;;;;;;;;;;;;;;2054574;28;7002;-65
2020/12/20 01:33:43;;;;;;;;;;;;;;;;;;2054922;28;7089;-68
2020/12/20 01:34:44;;;;;;;;;;;;;;;;;;2054573;28;7088;-66
2020/12/20 01:35:47;;;;;;;;;;;;;;;;;;2054251;28;7014;-66
2020/12/20 01:36:48;;;;;;;;;;;;;;;;;;2054540;28;7031;-68
2020/12/20 01:37:50;;;;;;;;;;;;;;;;;;2054688;28;7050;-66
2020/12/20 01:38:52;;;;;;;;;;;;;;;;;;2055032;28;7014;-66
2020/12/20 01:39:54;;;;;;;;;;;;;;;;;;2054800;28;7009;-67
2020/12/20 01:40:56;;;;;;;;;;;;;;;;;;2054580;28;7113;-68
2020/12/20 01:41:58;;;;;;;;;;;;;;;;;;2054318;28;7109;-65
2020/12/20 01:43:00;;;;;;;;;;;;;;;;;;2054623;28;7042;-64
2020/12/20 01:44:02;;;;;;;;;;;;;;;;;;2054264;28;8146;-64
2020/12/20 01:45:04;;;;;;;;;;;;;;;;;;2054524;28;7062;-66
2020/12/20 01:46:14;;;;;;;;;;;;;;;;;;2054656;28;7112;-67
2020/12/20 01:47:17;;;;;;;;;;;;;;;;;;2054713;28;7042;-68
2020/12/20 01:48:32;;;;;;;;;;;;;;;;;;2054716;28;7010;-67
2020/12/20 01:49:34;;;;;;;;;;;;;;;;;;2054275;28;7017;-66
2020/12/20 01:50:37;;;;;;;;;;;;;;;;;;2054391;28;7050;-68
2020/12/20 01:51:39;;;;;;;;;;;;;;;;;;2054203;28;7014;-66
2020/12/20 01:52:41;;;;;;;;;;;;;;;;;;2054202;28;7042;-65
2020/12/20 01:53:44;;;;;;;;;;;;;;;;;;2054317;28;7092;-66
2020/12/20 01:54:49;;;;;;;;;;;;;;;;;;2054282;28;7042;-69
2020/12/20 01:55:58;;;;;;;;;;;;;;;;;;2054373;28;7046;-69
2020/12/20 01:57:02;;;;;;;;;;;;;;;;;;2054478;28;7714;-67
2020/12/20 01:58:04;;;;;;;;;;;;;;;;;;2053366;28;7014;-66
2020/12/20 01:59:06;;;;;;;;;;;;;;;;;;2059631;28;7010;-67
2020/12/20 02:00:08;;;;;;;;;;;;;;;;;;2054509;28;7097;-67
2020/12/20 02:01:10;;;;;;;;;;;;;;;;;;2054186;28;8047;-65
2020/12/20 02:02:13;;;;;;;;;;;;;;;;;;2057007;28;7009;-65
2020/12/20 02:03:17;;;;;;;;;;;;;;;;;;2054145;28;7010;-68
2020/12/20 02:04:19;;;;;;;;;;;;;;;;;;2053845;28;7009;-66
2020/12/20 02:05:21;;;;;;;;;;;;;;;;;;2054147;28;7037;-68
2020/12/20 02:06:24;;;;;;;;;;;;;;;;;;2054222;28;7010;-67
2020/12/20 02:07:26;;;;;;;;;;;;;;;;;;2054458;28;7034;-65
2020/12/20 02:08:27;;;;;;;;;;;;;;;;;;2054346;28;7010;-67
2020/12/20 02:09:29;;;;;;;;;;;;;;;;;;2053515;28;7110;-65
2020/12/20 02:10:32;;;;;;;;;;;;;;;;;;2054323;28;7089;-68
2020/12/20 02:11:34;;;;;;;;;;;;;;;;;;2053185;28;7046;-68
2020/12/20 02:12:36;;;;;;;;;;;;;;;;;;2053811;28;7045;-68
2020/12/20 02:13:45;;;;;;;;;;;;;;;;;;2054630;28;7037;-69
2020/12/20 02:14:47;;;;;;;;;;;;;;;;;;2053786;28;7388;-68
2020/12/20 02:15:48;;;;;;;;;;;;;;;;;;2054530;28;7006;-66
2020/12/20 02:16:50;;;;;;;;;;;;;;;;;;2054065;28;7017;-67
2020/12/20 02:17:52;;;;;;;;;;;;;;;;;;2054831;28;7092;-65
2020/12/20 02:18:54;;;;;;;;;;;;;;;;;;2054020;28;7097;-67
2020/12/20 02:19:56;;;;;;;;;;;;;;;;;;2054967;28;7353;-67
2020/12/20 02:20:58;;;;;;;;;;;;;;;;;;2055290;28;7101;-66
2020/12/20 02:22:00;;;;;;;;;;;;;;;;;;2062158;28;7105;-63
2020/12/20 02:23:02;;;;;;;;;;;;;;;;;;2056557;28;7141;-68
2020/12/20 02:24:10;;;;;;;;;;;;;;;;;;2054112;28;7013;-66
2020/12/20 02:25:12;;;;;;;;;;;;;;;;;;2053235;28;7042;-69
2020/12/20 02:26:15;;;;;;;;;;;;;;;;;;2054075;28;7124;-65
2020/12/20 02:27:17;;;;;;;;;;;;;;;;;;2052238;28;7063;-65
2020/12/20 02:28:20;;;;;;;;;;;;;;;;;;2053890;28;8053;-66
2020/12/20 02:29:23;;;;;;;;;;;;;;;;;;2053180;28;7104;-66
2020/12/20 02:30:24;;;;;;;;;;;;;;;;;;2054117;28;8033;-67
2020/12/20 02:31:28;;;;;;;;;;;;;;;;;;2056502;28;8104;-65
2020/12/20 02:32:30;;;;;;;;;;;;;;;;;;2054167;28;7010;-65
2020/12/20 02:33:33;;;;;;;;;;;;;;;;;;2054415;28;8040;-65
2020/12/20 02:34:36;;;;;;;;;;;;;;;;;;2053611;28;7105;-70
2020/12/20 02:35:37;;;;;;;;;;;;;;;;;;2053658;28;7034;-69
2020/12/20 02:36:39;;;;;;;;;;;;;;;;;;2056275;28;7101;-67
2020/12/20 02:37:41;;;;;;;;;;;;;;;;;;2054033;28;7117;-64
2020/12/20 02:38:43;;;;;;;;;;;;;;;;;;2053663;28;7086;-65
2020/12/20 02:39:45;;;;;;;;;;;;;;;;;;2053402;28;7013;-67
2020/12/20 02:40:47;;;;;;;;;;;;;;;;;;2054388;28;7093;-64
2020/12/20 02:41:53;;;;;;;;;;;;;;;;;;2053796;28;8024;-64
2020/12/20 02:42:55;;;;;;;;;;;;;;;;;;2054265;28;8030;-66
2020/12/20 02:43:59;;;;;;;;;;;;;;;;;;2053501;28;7014;-66
2020/12/20 02:45:00;;;;;;;;;;;;;;;;;;2052752;28;7134;-68
2020/12/20 02:46:03;;;;;;;;;;;;;;;;;;2054757;28;7352;-66
2020/12/20 02:47:05;;;;;;;;;;;;;;;;;;2054240;28;7093;-69
2020/12/20 02:48:07;;;;;;;;;;;;;;;;;;2054487;28;7140;-66
2020/12/20 02:49:09;;;;;;;;;;;;;;;;;;2054625;28;7244;-66
2020/12/20 02:50:11;;;;;;;;;;;;;;;;;;2054523;28;7010;-64
2020/12/20 02:51:13;;;;;;;;;;;;;;;;;;2054192;28;9023;-68
2020/12/20 02:52:15;;;;;;;;;;;;;;;;;;2053803;28;8038;-65
2020/12/20 02:53:17;;;;;;;;;;;;;;;;;;2054512;28;7305;-65
2020/12/20 02:54:19;;;;;;;;;;;;;;;;;;2053539;28;7106;-66
2020/12/20 02:55:21;;;;;;;;;;;;;;;;;;2054074;28;7227;-67
2020/12/20 02:56:23;;;;;;;;;;;;;;;;;;2053406;28;7010;-68
2020/12/20 02:57:25;;;;;;;;;;;;;;;;;;2054305;28;7089;-67
2020/12/20 02:58:27;;;;;;;;;;;;;;;;;;2053627;28;7050;-66
2020/12/20 02:59:29;;;;;;;;;;;;;;;;;;2054052;28;8128;-65
2020/12/20 03:00:36;;;;;;;;;;;;;;;;;;2054554;28;7224;-66
2020/12/20 03:01:38;;;;;;;;;;;;;;;;;;2054291;28;7113;-65
2020/12/20 03:02:40;;;;;;;;;;;;;;;;;;2055171;28;7006;-67
2020/12/20 03:03:42;;;;;;;;;;;;;;;;;;2054193;28;7050;-67
2020/12/20 03:04:44;;;;;;;;;;;;;;;;;;2054395;28;7050;-65
2020/12/20 03:05:46;;;;;;;;;;;;;;;;;;2055457;28;7152;-66
2020/12/20 03:06:48;;;;;;;;;;;;;;;;;;2054291;28;8044;-66
2020/12/20 03:07:49;;;;;;;;;;;;;;;;;;2054566;28;7014;-67
2020/12/20 03:08:51;;;;;;;;;;;;;;;;;;2054499;28;7317;-65
2020/12/20 03:09:53;;;;;;;;;;;;;;;;;;2054436;28;7014;-66
2020/12/20 03:10:55;;;;;;;;;;;;;;;;;;2054870;28;7013;-67
2020/12/20 03:11:57;;;;;;;;;;;;;;;;;;2054002;28;7105;-67
2020/12/20 03:12:59;;;;;;;;;;;;;;;;;;2054338;28;7014;-67
2020/12/20 03:14:01;;;;;;;;;;;;;;;;;;2054449;28;7337;-64
2020/12/20 03:15:06;;;;;;;;;;;;;;;;;;2053449;28;7351;-66
2020/12/20 03:16:07;;;;;;;;;;;;;;;;;;2054240;28;7325;-67
2020/12/20 03:17:09;;;;;;;;;;;;;;;;;;2054461;28;7989;-66
2020/12/20 03:18:11;;;;;;;;;;;;;;;;;;2054784;28;7041;-69
2020/12/20 03:19:27;;;;;;;;;;;;;;;;;;2052177;28;7038;-68
2020/12/20 03:20:29;;;;;;;;;;;;;;;;;;2055174;28;7050;-68
2020/12/20 03:21:31;;;;;;;;;;;;;;;;;;2061006;28;7050;-64
2020/12/20 03:22:33;;;;;;;;;;;;;;;;;;2064265;28;7113;-64
2020/12/20 03:23:35;;;;;;;;;;;;;;;;;;2064068;28;7010;-65
2020/12/20 03:24:38;;;;;;;;;;;;;;;;;;2055170;28;7021;-67
2020/12/20 03:25:40;;;;;;;;;;;;;;;;;;2055624;28;7092;-66
2020/12/20 03:26:43;;;;;;;;;;;;;;;;;;2055455;28;7046;-66
2020/12/20 03:27:45;;;;;;;;;;;;;;;;;;2056000;28;7345;-67
2020/12/20 03:28:47;;;;;;;;;;;;;;;;;;2055678;28;7010;-65
2020/12/20 03:29:49;;;;;;;;;;;;;;;;;;2055768;28;7010;-66
2020/12/20 03:30:51;;;;;;;;;;;;;;;;;;2055922;28;7013;-66
2020/12/20 03:31:53;;;;;;;;;;;;;;;;;;2063928;28;7042;-66
2020/12/20 03:32:55;;;;;;;;;;;;;;;;;;2056399;28;7021;-66
2020/12/20 03:33:56;;;;;;;;;;;;;;;;;;2056119;28;7021;-64
2020/12/20 03:34:58;;;;;;;;;;;;;;;;;;2056135;28;7089;-67
2020/12/20 03:36:00;;;;;;;;;;;;;;;;;;2056511;28;7084;-64
2020/12/20 03:37:02;;;;;;;;;;;;;;;;;;2055810;28;7405;-68
2020/12/20 03:38:04;;;;;;;;;;;;;;;;;;2055964;28;7009;-65
2020/12/20 03:39:06;;;;;;;;;;;;;;;;;;2055958;28;7097;-67
2020/12/20 03:40:08;;;;;;;;;;;;;;;;;;2055806;28;7089;-65
2020/12/20 03:41:10;;;;;;;;;;;;;;;;;;2054658;28;8018;-67
2020/12/20 03:42:12;;;;;;;;;;;;;;;;;;2063642;28;7196;-63
2020/12/20 03:43:14;;;;;;;;;;;;;;;;;;2063801;28;7002;-69
2020/12/20 03:44:16;;;;;;;;;;;;;;;;;;2063213;28;7092;-64
2020/12/20 03:45:19;;;;;;;;;;;;;;;;;;2063463;28;7006;-68
2020/12/20 03:46:20;;;;;;;;;;;;;;;;;;2063182;28;7114;-67
2020/12/20 03:47:22;;;;;;;;;;;;;;;;;;2063491;28;7105;-66
2020/12/20 03:48:25;;;;;;;;;;;;;;;;;;2063345;28;7014;-67
2020/12/20 03:49:45;;;;;;;;;;;;;;;;;;2063852;28;7158;-66
2020/12/20 03:50:47;;;;;;;;;;;;;;;;;;2063182;28;9378;-65
2020/12/20 03:51:49;;;;;;;;;;;;;;;;;;2063389;28;7131;-66
2020/12/20 03:52:51;;;;;;;;;;;;;;;;;;2063834;28;7013;-65
2020/12/20 03:53:53;;;;;;;;;;;;;;;;;;2063821;28;7088;-64
2020/12/20 03:54:55;;;;;;;;;;;;;;;;;;2063272;28;7013;-67
2020/12/20 03:55:58;;;;;;;;;;;;;;;;;;2063857;28;7075;-67
2020/12/20 03:57:00;;;;;;;;;;;;;;;;;;2063437;28;7089;-65
2020/12/20 03:58:01;;;;;;;;;;;;;;;;;;2063688;28;7288;-69
2020/12/20 03:59:03;;;;;;;;;;;;;;;;;;2063277;28;7010;-66
2020/12/20 04:00:06;;;;;;;;;;;;;;;;;;2063217;28;7021;-68
2020/12/20 04:01:08;;;;;;;;;;;;;;;;;;2061165;28;7009;-64
2020/12/20 04:02:10;;;;;;;;;;;;;;;;;;2063115;28;7005;-67
2020/12/20 04:03:11;;;;;;;;;;;;;;;;;;2063226;28;8053;-67
2020/12/20 04:04:13;;;;;;;;;;;;;;;;;;2063540;28;7025;-67
2020/12/20 04:05:15;;;;;;;;;;;;;;;;;;2063106;28;7034;-64
2020/12/20 04:06:18;;;;;;;;;;;;;;;;;;2063588;28;7101;-68
2020/12/20 04:07:20;;;;;;;;;;;;;;;;;;2063770;28;7014;-68
2020/12/20 04:08:22;;;;;;;;;;;;;;;;;;2063939;28;7034;-66
2020/12/20 04:09:24;;;;;;;;;;;;;;;;;;2063365;28;7160;-68
2020/12/20 04:10:27;;;;;;;;;;;;;;;;;;2063391;28;7089;-65
2020/12/20 04:11:28;;;;;;;;;;;;;;;;;;2058188;28;7025;-68
2020/12/20 04:12:30;;;;;;;;;;;;;;;;;;2055546;28;8044;-69
2020/12/20 04:13:33;;;;;;;;;;;;;;;;;;2055553;28;7139;-66
2020/12/20 04:14:36;;;;;;;;;;;;;;;;;;2055768;28;7089;-65
2020/12/20 04:15:37;;;;;;;;;;;;;;;;;;2055685;28;7013;-65
2020/12/20 04:16:39;;;;;;;;;;;;;;;;;;2055540;28;7010;-68
2020/12/20 04:17:41;;;;;;;;;;;;;;;;;;2054758;28;7159;-68
2020/12/20 04:18:43;;;;;;;;;;;;;;;;;;2055281;28;7093;-67
2020/12/20 04:20:03;;;;;;;;;;;;;;;;;;2055335;28;7010;-65
2020/12/20 04:21:05;;;;;;;;;;;;;;;;;;2057171;28;7081;-68
2020/12/20 04:22:07;;;;;;;;;;;;;;;;;;2054266;28;7097;-67
2020/12/20 04:23:09;;;;;;;;;;;;;;;;;;2055144;28;7515;-65
2020/12/20 04:24:11;;;;;;;;;;;;;;;;;;2055325;28;7009;-67
2020/12/20 04:25:13;;;;;;;;;;;;;;;;;;2055680;28;8047;-66
2020/12/20 04:26:14;;;;;;;;;;;;;;;;;;2055463;28;8064;-66
2020/12/20 04:27:16;;;;;;;;;;;;;;;;;;2055468;28;7010;-65
2020/12/20 04:28:19;;;;;;;;;;;;;;;;;;2055319;28;8120;-65
2020/12/20 04:29:21;;;;;;;;;;;;;;;;;;2055890;28;7117;-66
2020/12/20 04:30:24;;;;;;;;;;;;;;;;;;2062668;28;7013;-70
2020/12/20 04:31:26;;;;;;;;;;;;;;;;;;2054659;28;7018;-68
2020/12/20 04:32:28;;;;;;;;;;;;;;;;;;2055634;28;7395;-68
2020/12/20 04:33:30;;;;;;;;;;;;;;;;;;2055356;28;7089;-70
2020/12/20 04:34:32;;;;;;;;;;;;;;;;;;2055207;28;7013;-67
2020/12/20 04:35:35;;;;;;;;;;;;;;;;;;2055345;28;7096;-66
2020/12/20 04:36:37;;;;;;;;;;;;;;;;;;2055191;28;8044;-68
2020/12/20 04:37:39;;;;;;;;;;;;;;;;;;2055053;28;7034;-67
2020/12/20 04:38:41;;;;;;;;;;;;;;;;;;2055548;28;7046;-66
2020/12/20 04:39:43;;;;;;;;;;;;;;;;;;2056127;28;7005;-67
2020/12/20 04:40:45;;;;;;;;;;;;;;;;;;2054581;28;7124;-67
2020/12/20 04:41:47;;;;;;;;;;;;;;;;;;2055266;28;7014;-64
2020/12/20 04:42:49;;;;;;;;;;;;;;;;;;2054964;28;7996;-66
2020/12/20 04:43:52;;;;;;;;;;;;;;;;;;2054919;28;7014;-64
2020/12/20 04:44:54;;;;;;;;;;;;;;;;;;2055130;28;7088;-67
2020/12/20 04:45:56;;;;;;;;;;;;;;;;;;2055146;28;7139;-66
2020/12/20 04:46:59;;;;;;;;;;;;;;;;;;2055307;28;7096;-68
2020/12/20 04:48:02;;;;;;;;;;;;;;;;;;2055585;28;7081;-66
2020/12/20 04:49:04;;;;;;;;;;;;;;;;;;2055372;28;7155;-65
2020/12/20 04:50:24;;;;;;;;;;;;;;;;;;2055449;28;7109;-68
2020/12/20 04:51:27;;;;;;;;;;;;;;;;;;2055288;28;7560;-66
2020/12/20 04:52:31;;;;;;;;;;;;;;;;;;2055341;28;7038;-66
2020/12/20 04:53:35;;;;;;;;;;;;;;;;;;2055436;28;7014;-67
2020/12/20 04:54:39;;;;;;;;;;;;;;;;;;2055396;28;7018;-69
2020/12/20 04:55:41;;;;;;;;;;;;;;;;;;2055163;28;7013;-65
2020/12/20 04:56:42;;;;;;;;;;;;;;;;;;2055288;28;7017;-66
2020/12/20 04:57:46;;;;;;;;;;;;;;;;;;2055230;28;7105;-68
2020/12/20 04:58:49;;;;;;;;;;;;;;;;;;2055304;28;7009;-67
2020/12/20 04:59:51;;;;;;;;;;;;;;;;;;2055348;28;8104;-67
2020/12/20 05:00:53;;;;;;;;;;;;;;;;;;2056341;28;7038;-65
2020/12/20 05:01:55;;;;;;;;;;;;;;;;;;2055786;28;7029;-66
2020/12/20 05:02:57;;;;;;;;;;;;;;;;;;2062373;28;7089;-66
2020/12/20 05:04:00;;;;;;;;;;;;;;;;;;2063308;28;7151;-66
2020/12/20 05:05:02;;;;;;;;;;;;;;;;;;2054279;28;7018;-66
2020/12/20 05:06:05;;;;;;;;;;;;;;;;;;2055236;28;8044;-65
2020/12/20 05:07:07;;;;;;;;;;;;;;;;;;2055565;28;7006;-67
2020/12/20 05:08:10;;;;;;;;;;;;;;;;;;2055060;28;7042;-68
2020/12/20 05:09:12;;;;;;;;;;;;;;;;;;2055517;28;7042;-67
2020/12/20 05:10:14;;;;;;;;;;;;;;;;;;2055213;28;7006;-67
2020/12/20 05:11:34;;;;;;;;;;;;;;;;;;2054336;28;7106;-66
2020/12/20 05:12:37;;;;;;;;;;;;;;;;;;2055782;28;7150;-66
2020/12/20 05:13:40;;;;;;;;;;;;;;;;;;2054452;28;7097;-64
2020/12/20 05:14:42;;;;;;;;;;;;;;;;;;2055586;28;7010;-68
2020/12/20 05:15:44;;;;;;;;;;;;;;;;;;2055203;28;7183;-68
2020/12/20 05:16:46;;;;;;;;;;;;;;;;;;2054818;28;7092;-70
2020/12/20 05:17:48;;;;;;;;;;;;;;;;;;2055047;28;8116;-66
2020/12/20 05:18:50;;;;;;;;;;;;;;;;;;2055371;28;7088;-66
2020/12/20 05:19:52;;;;;;;;;;;;;;;;;;2055581;28;7017;-67
2020/12/20 05:20:54;;;;;;;;;;;;;;;;;;2055192;28;7120;-69
2020/12/20 05:22:32;;;;;;;;;;;;;;;;;;2055348;28;7097;-66
2020/12/20 05:23:34;;;;;;;;;;;;;;;;;;2038278;29;8031;-68
2020/12/20 05:24:37;;;;;;;;;;;;;;;;;;2038333;29;7014;-63
2020/12/20 05:25:40;;;;;;;;;;;;;;;;;;2039388;28;8012;-66
2020/12/20 05:26:42;;;;;;;;;;;;;;;;;;2055236;28;7100;-66
2020/12/20 05:27:43;;;;;;;;;;;;;;;;;;2054841;28;7046;-70
2020/12/20 05:28:45;;;;;;;;;;;;;;;;;;2055517;28;8261;-66
2020/12/20 05:29:51;;;;;;;;;;;;;;;;;;2063200;28;7096;-65
2020/12/20 05:30:53;;;;;;;;;;;;;;;;;;2062822;28;7054;-64
2020/12/20 05:31:55;;;;;;;;;;;;;;;;;;2062704;28;8072;-67
2020/12/20 05:32:57;;;;;;;;;;;;;;;;;;2062314;28;7006;-67
2020/12/20 05:33:58;;;;;;;;;;;;;;;;;;2062612;28;7322;-63
2020/12/20 05:35:03;;;;;;;;;;;;;;;;;;2062897;28;7042;-69
2020/12/20 05:36:06;;;;;;;;;;;;;;;;;;2054753;28;7264;-67
2020/12/20 05:37:09;;;;;;;;;;;;;;;;;;2045943;28;7196;-68
2020/12/20 05:38:11;;;;;;;;;;;;;;;;;;2046412;28;7010;-65
2020/12/20 05:39:19;;;;;;;;;;;;;;;;;;2055145;28;8060;-67
2020/12/20 05:40:26;;;;;;;;;;;;;;;;;;2056961;28;7093;-67
2020/12/20 05:41:30;;;;;;;;;;;;;;;;;;2062677;28;7370;-65
2020/12/20 05:42:32;;;;;;;;;;;;;;;;;;2062240;28;7357;-65
2020/12/20 05:43:34;;;;;;;;;;;;;;;;;;2062675;28;7100;-66
2020/12/20 05:44:37;;;;;;;;;;;;;;;;;;2062526;28;7089;-65
2020/12/20 05:45:38;;;;;;;;;;;;;;;;;;2062498;28;7005;-65
2020/12/20 05:46:42;;;;;;;;;;;;;;;;;;2063161;28;7097;-66
2020/12/20 05:47:44;;;;;;;;;;;;;;;;;;2062977;28;7121;-64
2020/12/20 05:48:46;;;;;;;;;;;;;;;;;;2062576;28;8080;-64
2020/12/20 05:49:48;;;;;;;;;;;;;;;;;;2062482;28;7388;-66
2020/12/20 05:51:06;;;;;;;;;;;;;;;;;;2063271;28;7006;-67
2020/12/20 05:52:09;;;;;;;;;;;;;;;;;;2054069;28;7006;-64
2020/12/20 05:53:11;;;;;;;;;;;;;;;;;;2054820;28;7117;-66
2020/12/20 05:54:13;;;;;;;;;;;;;;;;;;2054794;28;7010;-64
2020/12/20 05:55:15;;;;;;;;;;;;;;;;;;2054967;28;7093;-68
2020/12/20 05:56:20;;;;;;;;;;;;;;;;;;2055126;28;7155;-66
2020/12/20 05:57:24;;;;;;;;;;;;;;;;;;2054722;28;7029;-68
2020/12/20 05:58:30;;;;;;;;;;;;;;;;;;2054817;28;7010;-67
2020/12/20 05:59:32;;;;;;;;;;;;;;;;;;2054709;28;7013;-66
2020/12/20 06:00:35;;;;;;;;;;;;;;;;;;2054284;28;7050;-65
2020/12/20 06:01:38;;;;;;;;;;;;;;;;;;2054895;28;7117;-67
2020/12/20 06:02:41;;;;;;;;;;;;;;;;;;2054324;28;7010;-68
2020/12/20 06:03:45;;;;;;;;;;;;;;;;;;2054751;28;7046;-69
2020/12/20 06:04:47;;;;;;;;;;;;;;;;;;2054609;28;7096;-65
2020/12/20 06:05:50;;;;;;;;;;;;;;;;;;2054555;28;7669;-64
2020/12/20 06:06:56;;;;;;;;;;;;;;;;;;2055394;28;7009;-66
2020/12/20 06:08:02;;;;;;;;;;;;;;;;;;2059186;28;7046;-64
2020/12/20 06:09:05;;;;;;;;;;;;;;;;;;2062891;28;7384;-65
2020/12/20 06:10:10;;;;;;;;;;;;;;;;;;2062783;28;7078;-65
2020/12/20 06:11:20;;;;;;;;;;;;;;;;;;2061334;28;7022;-66
2020/12/20 06:12:24;;;;;;;;;;;;;;;;;;2054999;28;7038;-65
2020/12/20 06:13:26;;;;;;;;;;;;;;;;;;2055203;28;7112;-67
2020/12/20 06:14:29;;;;;;;;;;;;;;;;;;2054627;28;7038;-65
2020/12/20 06:15:33;;;;;;;;;;;;;;;;;;2054304;28;7089;-66
2020/12/20 06:16:36;;;;;;;;;;;;;;;;;;2054561;28;7046;-65
2020/12/20 06:17:43;;;;;;;;;;;;;;;;;;2054857;28;7050;-65
2020/12/20 06:18:50;;;;;;;;;;;;;;;;;;2052604;28;7097;-64
2020/12/20 06:19:54;;;;;;;;;;;;;;;;;;2055228;28;7038;-65
2020/12/20 06:21:00;;;;;;;;;;;;;;;;;;2053702;28;7159;-65
2020/12/20 06:22:07;;;;;;;;;;;;;;;;;;2053847;28;7034;-65
2020/12/20 06:23:12;;;;;;;;;;;;;;;;;;2054674;28;7014;-69
2020/12/20 06:24:14;;;;;;;;;;;;;;;;;;2054689;28;7025;-66
2020/12/20 06:25:23;;;;;;;;;;;;;;;;;;2057741;28;7365;-69
2020/12/20 06:26:33;;;;;;;;;;;;;;;;;;2053968;28;7982;-67
2020/12/20 06:27:35;;;;;;;;;;;;;;;;;;2062141;28;7009;-65
2020/12/20 06:28:39;;;;;;;;;;;;;;;;;;2062157;28;7013;-67
2020/12/20 06:29:46;;;;;;;;;;;;;;;;;;2062236;28;7153;-67
2020/12/20 06:30:49;;;;;;;;;;;;;;;;;;2052622;28;7093;-64
2020/12/20 06:31:55;;;;;;;;;;;;;;;;;;2054877;28;7230;-66
2020/12/20 06:33:02;;;;;;;;;;;;;;;;;;2054359;28;8133;-67
2020/12/20 06:34:11;;;;;;;;;;;;;;;;;;2054430;28;7139;-64
2020/12/20 06:35:13;;;;;;;;;;;;;;;;;;2054252;28;7137;-67
2020/12/20 06:36:16;;;;;;;;;;;;;;;;;;2055146;28;8051;-63
2020/12/20 06:37:21;;;;;;;;;;;;;;;;;;2054488;28;7009;-68
2020/12/20 06:38:24;;;;;;;;;;;;;;;;;;2054651;28;7053;-66
2020/12/20 06:39:44;;;;;;;;;;;;;;;;;;2054697;28;7025;-66
2020/12/20 06:40:47;;;;;;;;;;;;;;;;;;2054524;28;8032;-70
2020/12/20 06:41:51;;;;;;;;;;;;;;;;;;2054363;28;7014;-64
2020/12/20 06:42:53;;;;;;;;;;;;;;;;;;2054442;28;7345;-67
2020/12/20 06:43:55;;;;;;;;;;;;;;;;;;2054648;28;7088;-63
2020/12/20 06:45:09;;;;;;;;;;;;;;;;;;2054476;28;7326;-68
2020/12/20 06:46:11;;;;;;;;;;;;;;;;;;2054338;28;7105;-66
2020/12/20 06:47:33;;;;;;;;;;;;;;;;;;2054549;28;7006;-67
2020/12/20 06:48:36;;;;;;;;;;;;;;;;;;2054575;28;7110;-65
2020/12/20 06:49:40;;;;;;;;;;;;;;;;;;2054467;28;7010;-65
2020/12/20 06:50:44;;;;;;;;;;;;;;;;;;2054796;28;7125;-64
2020/12/20 06:51:46;;;;;;;;;;;;;;;;;;2054015;28;7113;-67
2020/12/20 06:52:48;;;;;;;;;;;;;;;;;;2054523;28;7009;-67
2020/12/20 06:53:52;;;;;;;;;;;;;;;;;;2055251;28;7157;-68
2020/12/20 06:55:02;;;;;;;;;;;;;;;;;;2056376;28;7101;-69
2020/12/20 06:56:13;;;;;;;;;;;;;;;;;;2056078;28;7298;-65
2020/12/20 06:57:15;;;;;;;;;;;;;;;;;;2056215;28;7290;-66
2020/12/20 06:58:17;;;;;;;;;;;;;;;;;;2055494;28;7269;-68
2020/12/20 06:59:43;;;;;;;;;;;;;;;;;;2055630;28;7096;-67
2020/12/20 07:00:45;;;;;;;;;;;;;;;;;;2050478;28;7010;-67
2020/12/20 07:01:47;;;;;;;;;;;;;;;;;;2056229;28;8015;-68
2020/12/20 07:02:50;;;;;;;;;;;;;;;;;;2055290;28;7089;-68
2020/12/20 07:03:52;;;;;;;;;;;;;;;;;;2056339;28;7050;-66
2020/12/20 07:04:54;;;;;;;;;;;;;;;;;;2056516;28;7014;-66
2020/12/20 07:06:17;;;;;;;;;;;;;;;;;;2055571;28;7010;-66
2020/12/20 07:07:23;;;;;;;;;;;;;;;;;;2055640;28;7014;-64
2020/12/20 07:08:25;;;;;;;;;;;;;;;;;;2055104;28;7014;-66
2020/12/20 07:09:33;;;;;;;;;;;;;;;;;;2054937;28;7009;-66
2020/12/20 07:10:41;;;;;;;;;;;;;;;;;;2055907;28;7014;-67
2020/12/20 07:11:47;;;;;;;;;;;;;;;;;;2053873;28;7096;-68
2020/12/20 07:12:50;;;;;;;;;;;;;;;;;;2056152;28;7046;-64
2020/12/20 07:13:54;;;;;;;;;;;;;;;;;;2056476;28;7014;-67
2020/12/20 07:14:56;;;;;;;;;;;;;;;;;;2056779;28;7014;-68
2020/12/20 07:16:08;;;;;;;;;;;;;;;;;;2056536;28;7010;-66
2020/12/20 07:17:23;;;;;;;;;;;;;;;;;;2055891;28;8064;-64
2020/12/20 07:18:44;;;;;;;;;;;;;;;;;;2055660;28;7046;-65
2020/12/20 07:20:06;;;;;;;;;;;;;;;;;;2055737;28;8048;-68